sensor_id;sensor_type;location;lat;lon;timestamp;P1;durP1;ratioP1;P2;durP2;ratioP2
69087;SDS011;56190;43.562;5.036;2022-07-09T00:01:22;2.67;;;1.00;;
69087;SDS011;56190;43.562;5.036;2022-07-09T00:03:48;1.80;;;0.90;;
69087;SDS011;56190;43.562;5.036;2022-07-09T00:06:13;2.67;;;1.45;;
69087;SDS011;56190;43.562;5.036;2022-07-09T00:08:38;1.67;;;1.10;;
69087;SDS011;56190;43.562;5.036;2022-07-09T00:11:03;1.58;;;0.95;;
69087;SDS011;56190;43.562;5.036;2022-07-09T00:13:29;2.63;;;1.10;;
69087;SDS011;56190;43.562;5.036;2022-07-09T00:15:54;2.60;;;1.20;;
69087;SDS011;56190;43.562;5.036;2022-07-09T00:18:19;2.25;;;1.27;;
69087;SDS011;56190;43.562;5.036;2022-07-09T00:20:45;3.35;;;1.20;;
69087;SDS011;56190;43.562;5.036;2022-07-09T00:23:10;2.80;;;1.08;;
69087;SDS011;56190;43.562;5.036;2022-07-09T00:25:35;2.13;;;1.10;;
69087;SDS011;56190;43.562;5.036;2022-07-09T00:28:00;3.05;;;1.00;;
69087;SDS011;56190;43.562;5.036;2022-07-09T00:30:26;2.60;;;1.35;;
69087;SDS011;56190;43.562;5.036;2022-07-09T00:32:51;2.25;;;0.82;;
69087;SDS011;56190;43.562;5.036;2022-07-09T00:35:16;2.35;;;1.10;;
69087;SDS011;56190;43.562;5.036;2022-07-09T00:37:41;2.10;;;1.27;;
69087;SDS011;56190;43.562;5.036;2022-07-09T00:40:07;2.45;;;0.98;;
69087;SDS011;56190;43.562;5.036;2022-07-09T00:42:32;1.70;;;1.17;;
69087;SDS011;56190;43.562;5.036;2022-07-09T00:44:57;1.10;;;0.85;;
69087;SDS011;56190;43.562;5.036;2022-07-09T00:47:23;1.45;;;1.17;;
69087;SDS011;56190;43.562;5.036;2022-07-09T00:49:48;3.22;;;1.23;;
69087;SDS011;56190;43.562;5.036;2022-07-09T00:52:14;4.20;;;1.13;;
69087;SDS011;56190;43.562;5.036;2022-07-09T00:54:40;2.70;;;1.10;;
69087;SDS011;56190;43.562;5.036;2022-07-09T00:57:06;1.25;;;0.98;;
69087;SDS011;56190;43.562;5.036;2022-07-09T00:59:32;1.77;;;1.00;;
69087;SDS011;56190;43.562;5.036;2022-07-09T01:01:58;2.40;;;1.45;;
69087;SDS011;56190;43.562;5.036;2022-07-09T01:04:24;2.63;;;1.20;;
69087;SDS011;56190;43.562;5.036;2022-07-09T01:06:50;1.67;;;1.10;;
69087;SDS011;56190;43.562;5.036;2022-07-09T01:09:15;4.35;;;1.52;;
69087;SDS011;56190;43.562;5.036;2022-07-09T01:11:40;3.25;;;1.35;;
69087;SDS011;56190;43.562;5.036;2022-07-09T01:14:06;2.55;;;1.10;;
69087;SDS011;56190;43.562;5.036;2022-07-09T01:16:32;3.03;;;1.38;;
69087;SDS011;56190;43.562;5.036;2022-07-09T01:18:57;4.43;;;1.20;;
69087;SDS011;56190;43.562;5.036;2022-07-09T01:21:23;2.92;;;1.20;;
69087;SDS011;56190;43.562;5.036;2022-07-09T01:23:48;3.50;;;1.17;;
69087;SDS011;56190;43.562;5.036;2022-07-09T01:26:13;2.30;;;1.10;;
69087;SDS011;56190;43.562;5.036;2022-07-09T01:28:39;2.67;;;1.05;;
69087;SDS011;56190;43.562;5.036;2022-07-09T01:31:04;3.83;;;1.20;;
69087;SDS011;56190;43.562;5.036;2022-07-09T01:33:29;4.53;;;1.30;;
69087;SDS011;56190;43.562;5.036;2022-07-09T01:35:56;2.25;;;1.40;;
69087;SDS011;56190;43.562;5.036;2022-07-09T01:38:22;1.83;;;1.10;;
69087;SDS011;56190;43.562;5.036;2022-07-09T01:40:48;3.67;;;1.00;;
69087;SDS011;56190;43.562;5.036;2022-07-09T01:43:13;3.10;;;1.00;;
69087;SDS011;56190;43.562;5.036;2022-07-09T01:45:38;4.20;;;1.10;;
69087;SDS011;56190;43.562;5.036;2022-07-09T01:48:03;2.53;;;1.10;;
69087;SDS011;56190;43.562;5.036;2022-07-09T01:50:29;2.83;;;1.27;;
69087;SDS011;56190;43.562;5.036;2022-07-09T01:52:54;2.45;;;1.40;;
69087;SDS011;56190;43.562;5.036;2022-07-09T01:55:19;3.00;;;1.20;;
69087;SDS011;56190;43.562;5.036;2022-07-09T01:57:45;2.72;;;1.40;;
69087;SDS011;56190;43.562;5.036;2022-07-09T02:00:10;1.88;;;1.35;;
69087;SDS011;56190;43.562;5.036;2022-07-09T02:02:36;2.45;;;1.23;;
69087;SDS011;56190;43.562;5.036;2022-07-09T02:05:01;2.35;;;1.20;;
69087;SDS011;56190;43.562;5.036;2022-07-09T02:07:26;4.22;;;1.23;;
69087;SDS011;56190;43.562;5.036;2022-07-09T02:09:51;2.25;;;0.93;;
69087;SDS011;56190;43.562;5.036;2022-07-09T02:12:17;3.55;;;1.20;;
69087;SDS011;56190;43.562;5.036;2022-07-09T02:14:43;4.78;;;1.30;;
69087;SDS011;56190;43.562;5.036;2022-07-09T02:17:08;2.20;;;1.13;;
69087;SDS011;56190;43.562;5.036;2022-07-09T02:19:33;2.85;;;1.40;;
69087;SDS011;56190;43.562;5.036;2022-07-09T02:21:58;3.30;;;1.20;;
69087;SDS011;56190;43.562;5.036;2022-07-09T02:24:24;2.95;;;1.50;;
69087;SDS011;56190;43.562;5.036;2022-07-09T02:26:49;1.75;;;1.00;;
69087;SDS011;56190;43.562;5.036;2022-07-09T02:29:14;2.20;;;1.10;;
69087;SDS011;56190;43.562;5.036;2022-07-09T02:31:40;5.63;;;1.38;;
69087;SDS011;56190;43.562;5.036;2022-07-09T02:34:05;2.10;;;1.05;;
69087;SDS011;56190;43.562;5.036;2022-07-09T02:36:30;3.10;;;1.77;;
69087;SDS011;56190;43.562;5.036;2022-07-09T02:38:55;4.57;;;1.35;;
69087;SDS011;56190;43.562;5.036;2022-07-09T02:41:21;3.40;;;1.52;;
69087;SDS011;56190;43.562;5.036;2022-07-09T02:43:46;3.53;;;1.20;;
69087;SDS011;56190;43.562;5.036;2022-07-09T02:46:11;3.42;;;1.40;;
69087;SDS011;56190;43.562;5.036;2022-07-09T02:48:37;1.20;;;1.10;;
69087;SDS011;56190;43.562;5.036;2022-07-09T02:51:02;3.50;;;1.25;;
69087;SDS011;56190;43.562;5.036;2022-07-09T02:53:28;3.20;;;1.30;;
69087;SDS011;56190;43.562;5.036;2022-07-09T02:55:53;3.22;;;1.35;;
69087;SDS011;56190;43.562;5.036;2022-07-09T02:58:18;2.78;;;1.25;;
69087;SDS011;56190;43.562;5.036;2022-07-09T03:00:44;1.92;;;1.10;;
69087;SDS011;56190;43.562;5.036;2022-07-09T03:03:09;5.03;;;1.40;;
69087;SDS011;56190;43.562;5.036;2022-07-09T03:05:35;4.95;;;1.10;;
69087;SDS011;56190;43.562;5.036;2022-07-09T03:08:00;2.88;;;1.23;;
69087;SDS011;56190;43.562;5.036;2022-07-09T03:10:25;2.38;;;1.33;;
69087;SDS011;56190;43.562;5.036;2022-07-09T03:12:51;2.83;;;1.33;;
69087;SDS011;56190;43.562;5.036;2022-07-09T03:15:16;2.92;;;1.45;;
69087;SDS011;56190;43.562;5.036;2022-07-09T03:17:43;3.40;;;1.40;;
69087;SDS011;56190;43.562;5.036;2022-07-09T03:20:08;3.03;;;1.55;;
69087;SDS011;56190;43.562;5.036;2022-07-09T03:22:34;2.33;;;1.40;;
69087;SDS011;56190;43.562;5.036;2022-07-09T03:25:00;2.75;;;1.30;;
69087;SDS011;56190;43.562;5.036;2022-07-09T03:27:25;2.53;;;1.02;;
69087;SDS011;56190;43.562;5.036;2022-07-09T03:29:50;4.00;;;1.48;;
69087;SDS011;56190;43.562;5.036;2022-07-09T03:32:16;3.33;;;1.30;;
69087;SDS011;56190;43.562;5.036;2022-07-09T03:34:41;3.35;;;1.27;;
69087;SDS011;56190;43.562;5.036;2022-07-09T03:37:06;3.03;;;1.50;;
69087;SDS011;56190;43.562;5.036;2022-07-09T03:39:31;1.55;;;1.10;;
69087;SDS011;56190;43.562;5.036;2022-07-09T03:41:57;2.90;;;1.20;;
69087;SDS011;56190;43.562;5.036;2022-07-09T03:44:22;3.88;;;1.45;;
69087;SDS011;56190;43.562;5.036;2022-07-09T03:46:47;5.20;;;1.40;;
69087;SDS011;56190;43.562;5.036;2022-07-09T03:49:12;3.33;;;1.40;;
69087;SDS011;56190;43.562;5.036;2022-07-09T03:51:38;1.98;;;1.65;;
69087;SDS011;56190;43.562;5.036;2022-07-09T03:54:03;2.25;;;1.30;;
69087;SDS011;56190;43.562;5.036;2022-07-09T03:56:28;1.92;;;1.38;;
69087;SDS011;56190;43.562;5.036;2022-07-09T03:58:54;2.78;;;1.33;;
69087;SDS011;56190;43.562;5.036;2022-07-09T04:01:19;2.95;;;1.33;;
69087;SDS011;56190;43.562;5.036;2022-07-09T04:03:45;2.05;;;1.17;;
69087;SDS011;56190;43.562;5.036;2022-07-09T04:06:10;2.78;;;1.30;;
69087;SDS011;56190;43.562;5.036;2022-07-09T04:08:35;3.17;;;1.55;;
69087;SDS011;56190;43.562;5.036;2022-07-09T04:11:01;1.65;;;1.42;;
69087;SDS011;56190;43.562;5.036;2022-07-09T04:13:26;1.90;;;1.30;;
69087;SDS011;56190;43.562;5.036;2022-07-09T04:15:51;3.50;;;1.50;;
69087;SDS011;56190;43.562;5.036;2022-07-09T04:18:17;4.93;;;1.30;;
69087;SDS011;56190;43.562;5.036;2022-07-09T04:20:42;3.10;;;1.65;;
69087;SDS011;56190;43.562;5.036;2022-07-09T04:23:07;5.10;;;1.58;;
69087;SDS011;56190;43.562;5.036;2022-07-09T04:25:32;4.15;;;1.60;;
69087;SDS011;56190;43.562;5.036;2022-07-09T04:27:58;4.68;;;1.52;;
69087;SDS011;56190;43.562;5.036;2022-07-09T04:30:25;3.72;;;1.67;;
69087;SDS011;56190;43.562;5.036;2022-07-09T04:32:50;10.00;;;1.92;;
69087;SDS011;56190;43.562;5.036;2022-07-09T04:35:15;2.45;;;1.40;;
69087;SDS011;56190;43.562;5.036;2022-07-09T04:37:41;2.60;;;1.40;;
69087;SDS011;56190;43.562;5.036;2022-07-09T04:40:07;4.38;;;1.65;;
69087;SDS011;56190;43.562;5.036;2022-07-09T04:42:32;3.13;;;1.60;;
69087;SDS011;56190;43.562;5.036;2022-07-09T04:44:57;2.42;;;1.67;;
69087;SDS011;56190;43.562;5.036;2022-07-09T04:47:23;3.35;;;1.40;;
69087;SDS011;56190;43.562;5.036;2022-07-09T04:49:48;3.28;;;1.30;;
69087;SDS011;56190;43.562;5.036;2022-07-09T04:52:13;4.30;;;1.42;;
69087;SDS011;56190;43.562;5.036;2022-07-09T04:54:42;3.72;;;1.40;;
69087;SDS011;56190;43.562;5.036;2022-07-09T04:57:08;3.65;;;1.73;;
69087;SDS011;56190;43.562;5.036;2022-07-09T04:59:33;3.33;;;1.60;;
69087;SDS011;56190;43.562;5.036;2022-07-09T05:01:58;2.88;;;1.52;;
69087;SDS011;56190;43.562;5.036;2022-07-09T05:04:23;3.97;;;1.50;;
69087;SDS011;56190;43.562;5.036;2022-07-09T05:06:49;2.85;;;1.50;;
69087;SDS011;56190;43.562;5.036;2022-07-09T05:09:14;3.25;;;1.40;;
69087;SDS011;56190;43.562;5.036;2022-07-09T05:11:39;3.65;;;1.60;;
69087;SDS011;56190;43.562;5.036;2022-07-09T05:14:04;3.88;;;1.40;;
69087;SDS011;56190;43.562;5.036;2022-07-09T05:16:30;2.17;;;1.52;;
69087;SDS011;56190;43.562;5.036;2022-07-09T05:18:55;3.33;;;1.67;;
69087;SDS011;56190;43.562;5.036;2022-07-09T05:21:21;3.80;;;1.70;;
69087;SDS011;56190;43.562;5.036;2022-07-09T05:23:46;3.65;;;1.52;;
69087;SDS011;56190;43.562;5.036;2022-07-09T05:26:11;2.83;;;1.67;;
69087;SDS011;56190;43.562;5.036;2022-07-09T05:28:37;3.97;;;1.58;;
69087;SDS011;56190;43.562;5.036;2022-07-09T05:31:03;3.60;;;1.65;;
69087;SDS011;56190;43.562;5.036;2022-07-09T05:33:28;3.70;;;1.60;;
69087;SDS011;56190;43.562;5.036;2022-07-09T05:35:53;3.70;;;1.67;;
69087;SDS011;56190;43.562;5.036;2022-07-09T05:38:19;6.78;;;1.92;;
69087;SDS011;56190;43.562;5.036;2022-07-09T05:40:44;4.30;;;2.20;;
69087;SDS011;56190;43.562;5.036;2022-07-09T05:43:09;4.90;;;2.15;;
69087;SDS011;56190;43.562;5.036;2022-07-09T05:45:35;4.45;;;2.35;;
69087;SDS011;56190;43.562;5.036;2022-07-09T05:48:00;6.45;;;2.30;;
69087;SDS011;56190;43.562;5.036;2022-07-09T05:50:25;7.15;;;2.90;;
69087;SDS011;56190;43.562;5.036;2022-07-09T05:52:50;5.95;;;2.80;;
69087;SDS011;56190;43.562;5.036;2022-07-09T05:55:16;7.35;;;2.65;;
69087;SDS011;56190;43.562;5.036;2022-07-09T05:57:41;6.53;;;2.90;;
69087;SDS011;56190;43.562;5.036;2022-07-09T06:00:06;6.78;;;2.90;;
69087;SDS011;56190;43.562;5.036;2022-07-09T06:02:32;3.47;;;2.20;;
69087;SDS011;56190;43.562;5.036;2022-07-09T06:04:57;3.08;;;1.75;;
69087;SDS011;56190;43.562;5.036;2022-07-09T06:07:23;2.53;;;1.92;;
69087;SDS011;56190;43.562;5.036;2022-07-09T06:09:48;4.03;;;1.70;;
69087;SDS011;56190;43.562;5.036;2022-07-09T06:12:13;2.63;;;1.75;;
69087;SDS011;56190;43.562;5.036;2022-07-09T06:14:38;11.52;;;1.70;;
69087;SDS011;56190;43.562;5.036;2022-07-09T06:17:04;5.22;;;1.90;;
69087;SDS011;56190;43.562;5.036;2022-07-09T06:19:35;3.55;;;1.77;;
69087;SDS011;56190;43.562;5.036;2022-07-09T06:22:01;3.55;;;1.65;;
69087;SDS011;56190;43.562;5.036;2022-07-09T06:24:27;3.20;;;1.40;;
69087;SDS011;56190;43.562;5.036;2022-07-09T06:26:52;3.40;;;1.92;;
69087;SDS011;56190;43.562;5.036;2022-07-09T06:29:18;5.22;;;1.90;;
69087;SDS011;56190;43.562;5.036;2022-07-09T06:31:43;4.38;;;1.58;;
69087;SDS011;56190;43.562;5.036;2022-07-09T06:34:08;6.47;;;1.70;;
69087;SDS011;56190;43.562;5.036;2022-07-09T06:36:35;3.28;;;1.20;;
69087;SDS011;56190;43.562;5.036;2022-07-09T06:39:00;3.42;;;1.90;;
69087;SDS011;56190;43.562;5.036;2022-07-09T06:41:44;2.47;;;1.60;;
69087;SDS011;56190;43.562;5.036;2022-07-09T06:44:09;4.28;;;1.90;;
69087;SDS011;56190;43.562;5.036;2022-07-09T06:46:35;4.35;;;1.65;;
69087;SDS011;56190;43.562;5.036;2022-07-09T06:49:00;4.22;;;1.48;;
69087;SDS011;56190;43.562;5.036;2022-07-09T06:51:26;4.35;;;1.50;;
69087;SDS011;56190;43.562;5.036;2022-07-09T06:53:51;5.22;;;1.80;;
69087;SDS011;56190;43.562;5.036;2022-07-09T06:56:16;3.13;;;1.58;;
69087;SDS011;56190;43.562;5.036;2022-07-09T06:58:41;3.75;;;1.80;;
69087;SDS011;56190;43.562;5.036;2022-07-09T07:01:07;3.88;;;1.70;;
69087;SDS011;56190;43.562;5.036;2022-07-09T07:03:32;3.65;;;1.80;;
69087;SDS011;56190;43.562;5.036;2022-07-09T07:05:57;4.22;;;1.73;;
69087;SDS011;56190;43.562;5.036;2022-07-09T07:08:22;5.75;;;1.60;;
69087;SDS011;56190;43.562;5.036;2022-07-09T07:10:48;3.92;;;1.65;;
69087;SDS011;56190;43.562;5.036;2022-07-09T07:13:13;3.33;;;1.65;;
69087;SDS011;56190;43.562;5.036;2022-07-09T07:15:38;3.60;;;1.77;;
69087;SDS011;56190;43.562;5.036;2022-07-09T07:18:04;2.17;;;1.48;;
69087;SDS011;56190;43.562;5.036;2022-07-09T07:20:29;7.95;;;1.85;;
69087;SDS011;56190;43.562;5.036;2022-07-09T07:22:54;5.28;;;1.60;;
69087;SDS011;56190;43.562;5.036;2022-07-09T07:25:19;3.70;;;1.70;;
69087;SDS011;56190;43.562;5.036;2022-07-09T07:27:45;4.13;;;1.85;;
69087;SDS011;56190;43.562;5.036;2022-07-09T07:30:10;5.70;;;1.80;;
69087;SDS011;56190;43.562;5.036;2022-07-09T07:32:35;3.90;;;1.80;;
69087;SDS011;56190;43.562;5.036;2022-07-09T07:35:01;3.72;;;1.80;;
69087;SDS011;56190;43.562;5.036;2022-07-09T07:37:27;4.40;;;1.88;;
69087;SDS011;56190;43.562;5.036;2022-07-09T07:39:53;3.13;;;1.60;;
69087;SDS011;56190;43.562;5.036;2022-07-09T07:42:18;4.82;;;1.90;;
69087;SDS011;56190;43.562;5.036;2022-07-09T07:44:43;5.80;;;1.70;;
69087;SDS011;56190;43.562;5.036;2022-07-09T07:47:08;4.60;;;1.90;;
69087;SDS011;56190;43.562;5.036;2022-07-09T07:49:34;2.90;;;1.65;;
69087;SDS011;56190;43.562;5.036;2022-07-09T07:51:59;5.10;;;2.03;;
69087;SDS011;56190;43.562;5.036;2022-07-09T07:54:24;3.50;;;1.95;;
69087;SDS011;56190;43.562;5.036;2022-07-09T07:56:49;7.07;;;2.10;;
69087;SDS011;56190;43.562;5.036;2022-07-09T07:59:15;4.47;;;1.85;;
69087;SDS011;56190;43.562;5.036;2022-07-09T08:01:40;3.20;;;2.17;;
69087;SDS011;56190;43.562;5.036;2022-07-09T08:04:06;3.15;;;1.80;;
69087;SDS011;56190;43.562;5.036;2022-07-09T08:06:31;3.05;;;1.73;;
69087;SDS011;56190;43.562;5.036;2022-07-09T08:08:56;4.35;;;1.80;;
69087;SDS011;56190;43.562;5.036;2022-07-09T08:11:22;4.95;;;1.80;;
69087;SDS011;56190;43.562;5.036;2022-07-09T08:13:47;2.08;;;1.80;;
69087;SDS011;56190;43.562;5.036;2022-07-09T08:16:12;5.35;;;2.00;;
69087;SDS011;56190;43.562;5.036;2022-07-09T08:18:37;3.35;;;1.92;;
69087;SDS011;56190;43.562;5.036;2022-07-09T08:21:03;2.65;;;1.50;;
69087;SDS011;56190;43.562;5.036;2022-07-09T08:23:28;3.53;;;1.60;;
69087;SDS011;56190;43.562;5.036;2022-07-09T08:25:53;4.82;;;1.80;;
69087;SDS011;56190;43.562;5.036;2022-07-09T08:28:19;3.53;;;1.83;;
69087;SDS011;56190;43.562;5.036;2022-07-09T08:30:44;4.90;;;2.15;;
69087;SDS011;56190;43.562;5.036;2022-07-09T08:33:09;5.60;;;1.90;;
69087;SDS011;56190;43.562;5.036;2022-07-09T08:35:35;3.15;;;1.70;;
69087;SDS011;56190;43.562;5.036;2022-07-09T08:38:00;4.43;;;2.10;;
69087;SDS011;56190;43.562;5.036;2022-07-09T08:40:26;3.03;;;1.92;;
69087;SDS011;56190;43.562;5.036;2022-07-09T08:42:54;4.65;;;1.73;;
69087;SDS011;56190;43.562;5.036;2022-07-09T08:45:20;2.75;;;1.80;;
69087;SDS011;56190;43.562;5.036;2022-07-09T08:47:46;5.78;;;1.80;;
69087;SDS011;56190;43.562;5.036;2022-07-09T08:50:11;3.88;;;1.95;;
69087;SDS011;56190;43.562;5.036;2022-07-09T08:52:36;4.00;;;1.83;;
69087;SDS011;56190;43.562;5.036;2022-07-09T08:55:03;3.80;;;1.65;;
69087;SDS011;56190;43.562;5.036;2022-07-09T08:57:29;4.22;;;2.15;;
69087;SDS011;56190;43.562;5.036;2022-07-09T08:59:55;2.22;;;1.88;;
69087;SDS011;56190;43.562;5.036;2022-07-09T09:02:20;3.05;;;1.60;;
69087;SDS011;56190;43.562;5.036;2022-07-09T09:04:45;1.73;;;1.50;;
69087;SDS011;56190;43.562;5.036;2022-07-09T09:07:17;5.32;;;1.60;;
69087;SDS011;56190;43.562;5.036;2022-07-09T09:09:43;3.63;;;1.90;;
69087;SDS011;56190;43.562;5.036;2022-07-09T09:12:09;3.15;;;2.03;;
69087;SDS011;56190;43.562;5.036;2022-07-09T09:14:34;4.38;;;2.00;;
69087;SDS011;56190;43.562;5.036;2022-07-09T09:17:06;4.57;;;1.63;;
69087;SDS011;56190;43.562;5.036;2022-07-09T09:19:34;4.75;;;1.80;;
69087;SDS011;56190;43.562;5.036;2022-07-09T09:21:59;3.00;;;1.50;;
69087;SDS011;56190;43.562;5.036;2022-07-09T09:24:25;3.90;;;2.20;;
69087;SDS011;56190;43.562;5.036;2022-07-09T09:26:50;3.40;;;1.65;;
69087;SDS011;56190;43.562;5.036;2022-07-09T09:29:16;3.22;;;1.50;;
69087;SDS011;56190;43.562;5.036;2022-07-09T09:31:44;3.03;;;1.88;;
69087;SDS011;56190;43.562;5.036;2022-07-09T09:39:07;3.72;;;1.77;;
69087;SDS011;56190;43.562;5.036;2022-07-09T09:41:32;3.08;;;1.88;;
69087;SDS011;56190;43.562;5.036;2022-07-09T09:43:58;3.20;;;1.83;;
69087;SDS011;56190;43.562;5.036;2022-07-09T09:46:25;6.85;;;2.00;;
69087;SDS011;56190;43.562;5.036;2022-07-09T09:48:50;4.50;;;1.90;;
69087;SDS011;56190;43.562;5.036;2022-07-09T09:51:15;2.50;;;1.70;;
69087;SDS011;56190;43.562;5.036;2022-07-09T09:53:42;4.38;;;1.50;;
69087;SDS011;56190;43.562;5.036;2022-07-09T09:56:08;1.92;;;1.52;;
69087;SDS011;56190;43.562;5.036;2022-07-09T09:58:34;2.53;;;1.80;;
69087;SDS011;56190;43.562;5.036;2022-07-09T10:01:00;4.25;;;2.05;;
69087;SDS011;56190;43.562;5.036;2022-07-09T10:03:25;2.80;;;2.08;;
69087;SDS011;56190;43.562;5.036;2022-07-09T10:05:50;4.03;;;1.70;;
69087;SDS011;56190;43.562;5.036;2022-07-09T10:08:16;2.75;;;1.60;;
69087;SDS011;56190;43.562;5.036;2022-07-09T10:10:49;6.63;;;1.98;;
69087;SDS011;56190;43.562;5.036;2022-07-09T10:13:21;2.75;;;1.60;;
69087;SDS011;56190;43.562;5.036;2022-07-09T10:15:49;3.33;;;1.60;;
69087;SDS011;56190;43.562;5.036;2022-07-09T10:18:18;3.10;;;1.60;;
69087;SDS011;56190;43.562;5.036;2022-07-09T10:20:43;2.75;;;1.42;;
69087;SDS011;56190;43.562;5.036;2022-07-09T10:23:19;1.40;;;1.30;;
69087;SDS011;56190;43.562;5.036;2022-07-09T10:25:45;1.35;;;1.25;;
69087;SDS011;56190;43.562;5.036;2022-07-09T10:28:16;1.77;;;1.50;;
69087;SDS011;56190;43.562;5.036;2022-07-09T10:30:41;2.33;;;1.60;;
69087;SDS011;56190;43.562;5.036;2022-07-09T10:35:39;2.33;;;1.52;;
69087;SDS011;56190;43.562;5.036;2022-07-09T10:38:04;2.38;;;1.60;;
69087;SDS011;56190;43.562;5.036;2022-07-09T10:40:36;1.73;;;1.48;;
69087;SDS011;56190;43.562;5.036;2022-07-09T10:43:02;1.95;;;1.65;;
69087;SDS011;56190;43.562;5.036;2022-07-09T10:45:29;2.67;;;1.33;;
69087;SDS011;56190;43.562;5.036;2022-07-09T10:48:00;2.83;;;1.27;;
69087;SDS011;56190;43.562;5.036;2022-07-09T10:50:26;2.53;;;1.50;;
69087;SDS011;56190;43.562;5.036;2022-07-09T10:52:52;3.10;;;1.45;;
69087;SDS011;56190;43.562;5.036;2022-07-09T10:55:18;2.70;;;1.77;;
69087;SDS011;56190;43.562;5.036;2022-07-09T10:57:44;3.20;;;1.60;;
69087;SDS011;56190;43.562;5.036;2022-07-09T11:00:13;1.45;;;1.20;;
69087;SDS011;56190;43.562;5.036;2022-07-09T11:02:38;4.28;;;1.58;;
69087;SDS011;56190;43.562;5.036;2022-07-09T11:05:04;1.40;;;1.30;;
69087;SDS011;56190;43.562;5.036;2022-07-09T11:07:29;4.03;;;1.30;;
69087;SDS011;56190;43.562;5.036;2022-07-09T11:09:56;2.55;;;1.50;;
69087;SDS011;56190;43.562;5.036;2022-07-09T11:12:21;1.55;;;1.42;;
69087;SDS011;56190;43.562;5.036;2022-07-09T11:14:47;1.98;;;1.20;;
69087;SDS011;56190;43.562;5.036;2022-07-09T11:17:16;2.08;;;1.10;;
69087;SDS011;56190;43.562;5.036;2022-07-09T11:19:42;2.25;;;1.25;;
69087;SDS011;56190;43.562;5.036;2022-07-09T11:22:07;4.90;;;2.92;;
69087;SDS011;56190;43.562;5.036;2022-07-09T11:24:32;2.92;;;1.10;;
69087;SDS011;56190;43.562;5.036;2022-07-09T11:27:07;7.85;;;1.40;;
69087;SDS011;56190;43.562;5.036;2022-07-09T11:29:33;2.45;;;1.30;;
69087;SDS011;56190;43.562;5.036;2022-07-09T11:31:59;2.83;;;1.23;;
69087;SDS011;56190;43.562;5.036;2022-07-09T11:34:26;3.13;;;1.30;;
69087;SDS011;56190;43.562;5.036;2022-07-09T11:36:52;3.05;;;1.30;;
69087;SDS011;56190;43.562;5.036;2022-07-09T11:39:27;1.15;;;1.10;;
69087;SDS011;56190;43.562;5.036;2022-07-09T11:41:53;2.22;;;1.50;;
69087;SDS011;56190;43.562;5.036;2022-07-09T11:44:22;2.35;;;1.33;;
69087;SDS011;56190;43.562;5.036;2022-07-09T11:49:31;1.02;;;0.98;;
69087;SDS011;56190;43.562;5.036;2022-07-09T11:51:56;2.13;;;1.20;;
69087;SDS011;56190;43.562;5.036;2022-07-09T11:54:28;1.60;;;1.27;;
69087;SDS011;56190;43.562;5.036;2022-07-09T11:56:54;3.00;;;1.30;;
69087;SDS011;56190;43.562;5.036;2022-07-09T11:59:26;2.40;;;1.33;;
69087;SDS011;56190;43.562;5.036;2022-07-09T12:01:51;2.65;;;1.33;;
69087;SDS011;56190;43.562;5.036;2022-07-09T12:04:18;1.95;;;1.30;;
69087;SDS011;56190;43.562;5.036;2022-07-09T12:06:48;3.42;;;1.30;;
69087;SDS011;56190;43.562;5.036;2022-07-09T12:09:13;1.95;;;1.20;;
69087;SDS011;56190;43.562;5.036;2022-07-09T12:11:38;2.47;;;1.25;;
69087;SDS011;56190;43.562;5.036;2022-07-09T12:14:04;2.05;;;1.50;;
69087;SDS011;56190;43.562;5.036;2022-07-09T12:16:29;1.88;;;1.30;;
69087;SDS011;56190;43.562;5.036;2022-07-09T12:18:54;2.83;;;1.50;;
69087;SDS011;56190;43.562;5.036;2022-07-09T12:21:22;2.45;;;1.35;;
69087;SDS011;56190;43.562;5.036;2022-07-09T12:23:47;2.03;;;1.60;;
69087;SDS011;56190;43.562;5.036;2022-07-09T12:26:12;3.80;;;1.55;;
69087;SDS011;56190;43.562;5.036;2022-07-09T12:28:38;3.38;;;1.40;;
69087;SDS011;56190;43.562;5.036;2022-07-09T12:31:03;3.50;;;1.50;;
69087;SDS011;56190;43.562;5.036;2022-07-09T12:33:28;1.70;;;1.30;;
69087;SDS011;56190;43.562;5.036;2022-07-09T12:35:53;2.08;;;1.48;;
69087;SDS011;56190;43.562;5.036;2022-07-09T12:38:19;2.08;;;1.45;;
69087;SDS011;56190;43.562;5.036;2022-07-09T12:40:44;4.03;;;2.10;;
69087;SDS011;56190;43.562;5.036;2022-07-09T12:43:09;1.88;;;1.63;;
69087;SDS011;56190;43.562;5.036;2022-07-09T12:45:34;2.30;;;1.60;;
69087;SDS011;56190;43.562;5.036;2022-07-09T12:48:00;5.85;;;2.00;;
69087;SDS011;56190;43.562;5.036;2022-07-09T12:50:25;4.35;;;1.50;;
69087;SDS011;56190;43.562;5.036;2022-07-09T12:52:50;3.15;;;1.27;;
69087;SDS011;56190;43.562;5.036;2022-07-09T12:55:16;3.63;;;1.90;;
69087;SDS011;56190;43.562;5.036;2022-07-09T12:57:41;2.22;;;1.33;;
69087;SDS011;56190;43.562;5.036;2022-07-09T13:00:07;4.03;;;1.60;;
69087;SDS011;56190;43.562;5.036;2022-07-09T13:02:32;1.58;;;1.30;;
69087;SDS011;56190;43.562;5.036;2022-07-09T13:04:58;4.03;;;1.60;;
69087;SDS011;56190;43.562;5.036;2022-07-09T13:07:23;2.13;;;1.30;;
69087;SDS011;56190;43.562;5.036;2022-07-09T13:09:48;2.22;;;1.67;;
69087;SDS011;56190;43.562;5.036;2022-07-09T13:12:14;2.58;;;1.50;;
69087;SDS011;56190;43.562;5.036;2022-07-09T13:14:40;2.15;;;1.40;;
69087;SDS011;56190;43.562;5.036;2022-07-09T13:17:05;3.13;;;1.50;;
69087;SDS011;56190;43.562;5.036;2022-07-09T13:19:30;3.80;;;1.35;;
69087;SDS011;56190;43.562;5.036;2022-07-09T13:21:56;2.90;;;1.63;;
69087;SDS011;56190;43.562;5.036;2022-07-09T13:24:21;3.17;;;1.40;;
69087;SDS011;56190;43.562;5.036;2022-07-09T13:26:46;2.50;;;1.52;;
69087;SDS011;56190;43.562;5.036;2022-07-09T13:29:11;1.70;;;1.40;;
69087;SDS011;56190;43.562;5.036;2022-07-09T13:31:36;2.38;;;1.70;;
69087;SDS011;56190;43.562;5.036;2022-07-09T13:34:02;2.60;;;1.60;;
69087;SDS011;56190;43.562;5.036;2022-07-09T13:36:27;6.55;;;1.48;;
69087;SDS011;56190;43.562;5.036;2022-07-09T13:38:52;3.20;;;1.40;;
69087;SDS011;56190;43.562;5.036;2022-07-09T13:41:18;3.83;;;1.63;;
69087;SDS011;56190;43.562;5.036;2022-07-09T13:43:44;6.22;;;2.00;;
69087;SDS011;56190;43.562;5.036;2022-07-09T13:46:10;4.35;;;1.65;;
69087;SDS011;56190;43.562;5.036;2022-07-09T13:48:36;1.63;;;1.50;;
69087;SDS011;56190;43.562;5.036;2022-07-09T13:51:01;3.22;;;1.40;;
69087;SDS011;56190;43.562;5.036;2022-07-09T13:53:26;1.95;;;1.33;;
69087;SDS011;56190;43.562;5.036;2022-07-09T13:55:53;1.48;;;1.38;;
69087;SDS011;56190;43.562;5.036;2022-07-09T13:58:19;3.15;;;1.42;;
69087;SDS011;56190;43.562;5.036;2022-07-09T14:00:44;1.70;;;1.50;;
69087;SDS011;56190;43.562;5.036;2022-07-09T14:03:09;3.75;;;1.70;;
69087;SDS011;56190;43.562;5.036;2022-07-09T14:05:35;4.63;;;2.03;;
69087;SDS011;56190;43.562;5.036;2022-07-09T14:08:00;2.78;;;1.60;;
69087;SDS011;56190;43.562;5.036;2022-07-09T14:10:26;3.72;;;1.83;;
69087;SDS011;56190;43.562;5.036;2022-07-09T14:12:51;2.75;;;1.52;;
69087;SDS011;56190;43.562;5.036;2022-07-09T14:15:16;5.43;;;1.80;;
69087;SDS011;56190;43.562;5.036;2022-07-09T14:17:42;2.58;;;1.70;;
69087;SDS011;56190;43.562;5.036;2022-07-09T14:20:08;4.15;;;1.70;;
69087;SDS011;56190;43.562;5.036;2022-07-09T14:22:33;5.18;;;1.83;;
69087;SDS011;56190;43.562;5.036;2022-07-09T14:24:58;1.85;;;1.55;;
69087;SDS011;56190;43.562;5.036;2022-07-09T14:27:24;2.80;;;1.85;;
69087;SDS011;56190;43.562;5.036;2022-07-09T14:29:49;2.42;;;1.80;;
69087;SDS011;56190;43.562;5.036;2022-07-09T14:32:14;2.33;;;1.90;;
69087;SDS011;56190;43.562;5.036;2022-07-09T14:34:39;2.88;;;1.70;;
69087;SDS011;56190;43.562;5.036;2022-07-09T14:37:05;2.13;;;1.60;;
69087;SDS011;56190;43.562;5.036;2022-07-09T14:39:30;4.20;;;1.90;;
69087;SDS011;56190;43.562;5.036;2022-07-09T14:41:56;5.70;;;1.80;;
69087;SDS011;56190;43.562;5.036;2022-07-09T14:44:22;6.00;;;2.00;;
69087;SDS011;56190;43.562;5.036;2022-07-09T14:46:47;5.97;;;1.80;;
69087;SDS011;56190;43.562;5.036;2022-07-09T14:49:13;3.40;;;2.08;;